createdAt,value
2018-06-13T00:00:35.022Z,6.20
2018-06-13T00:03:04.266Z,5.40
2018-06-13T00:05:33.799Z,5.80
2018-06-13T00:08:03.430Z,5.17
2018-06-13T00:10:32.882Z,5.37
2018-06-13T00:13:02.189Z,5.90
2018-06-13T00:15:31.601Z,5.10
2018-06-13T00:18:00.921Z,4.87
2018-06-13T00:20:30.234Z,5.73
2018-06-13T00:22:59.590Z,4.90
2018-06-13T00:25:28.916Z,6.13
2018-06-13T00:27:58.206Z,5.10
2018-06-13T00:30:27.599Z,5.67
2018-06-13T00:32:57.103Z,5.73
2018-06-13T00:35:26.431Z,5.10
2018-06-13T00:37:55.902Z,5.37
2018-06-13T00:40:25.213Z,5.70
2018-06-13T00:42:54.643Z,5.37
2018-06-13T00:45:24.044Z,5.27
2018-06-13T00:47:53.536Z,5.27
2018-06-13T00:50:22.930Z,6.43
2018-06-13T00:52:52.178Z,5.60
2018-06-13T00:55:21.567Z,6.00
2018-06-13T00:57:50.926Z,5.73
2018-06-13T01:00:20.562Z,6.70
2018-06-13T01:02:49.922Z,7.23
2018-06-13T01:05:19.274Z,6.47
2018-06-13T01:07:48.550Z,6.67
2018-06-13T01:10:17.871Z,6.37
2018-06-13T01:12:47.161Z,6.60
2018-06-13T01:15:16.564Z,6.62
2018-06-13T01:17:45.843Z,5.93
2018-06-13T01:20:15.197Z,7.30
2018-06-13T01:22:44.548Z,7.03
2018-06-13T01:25:13.966Z,7.55
2018-06-13T01:27:43.354Z,7.13
2018-06-13T01:30:12.629Z,7.63
2018-06-13T01:32:42.274Z,7.10
2018-06-13T01:35:11.469Z,7.53
2018-06-13T01:37:40.915Z,6.83
2018-06-13T01:40:10.218Z,6.57
2018-06-13T01:42:39.543Z,7.40
2018-06-13T01:45:08.756Z,6.17
2018-06-13T01:47:38.033Z,7.17
2018-06-13T01:50:07.291Z,6.57
2018-06-13T01:52:36.574Z,6.97
2018-06-13T01:55:05.879Z,6.07
2018-06-13T01:57:35.169Z,6.80
2018-06-13T02:00:05.702Z,6.90
2018-06-13T02:02:35.620Z,6.80
2018-06-13T02:05:05.124Z,7.20
2018-06-13T02:07:34.424Z,6.77
2018-06-13T02:10:03.922Z,6.10
2018-06-13T02:12:33.248Z,6.67
2018-06-13T02:15:02.660Z,6.63
2018-06-13T02:17:31.865Z,6.63
2018-06-13T02:20:01.361Z,6.50
2018-06-13T02:22:30.672Z,6.27
2018-06-13T02:24:59.894Z,6.27
2018-06-13T02:27:29.143Z,6.00
2018-06-13T02:29:58.539Z,6.37
2018-06-13T02:32:27.828Z,6.30
2018-06-13T02:34:57.095Z,6.00
2018-06-13T02:37:26.539Z,5.63
2018-06-13T02:39:56.148Z,6.70
2018-06-13T02:42:25.482Z,5.97
2018-06-13T02:44:54.720Z,6.60
2018-06-13T02:47:24.058Z,6.67
2018-06-13T02:49:53.454Z,6.93
2018-06-13T02:52:22.802Z,7.20
2018-06-13T02:54:52.110Z,6.37
2018-06-13T02:57:22.236Z,7.50
2018-06-13T02:59:51.523Z,7.43
2018-06-13T03:02:20.779Z,6.57
2018-06-13T03:04:50.124Z,6.97
2018-06-13T03:07:19.467Z,6.77
2018-06-13T03:09:48.712Z,8.10
2018-06-13T03:12:18.030Z,7.33
2018-06-13T03:14:47.452Z,7.53
2018-06-13T03:17:16.689Z,7.30
2018-06-13T03:19:46.108Z,7.67
2018-06-13T03:22:15.359Z,8.13
2018-06-13T03:24:44.915Z,7.70
2018-06-13T03:27:14.254Z,7.90
2018-06-13T03:29:43.824Z,7.87
2018-06-13T03:32:13.147Z,7.80
2018-06-13T03:34:42.624Z,7.97
2018-06-13T03:37:11.932Z,8.77
2018-06-13T03:39:41.170Z,7.60
2018-06-13T03:42:10.549Z,8.77
2018-06-13T03:44:39.871Z,9.10
2018-06-13T03:47:09.275Z,8.30
2018-06-13T03:49:38.601Z,8.60
2018-06-13T03:52:08.383Z,8.63
2018-06-13T03:54:37.730Z,9.23
2018-06-13T03:57:07.000Z,11.27
2018-06-13T03:59:36.329Z,13.00
2018-06-13T04:02:05.985Z,12.50
2018-06-13T04:04:35.124Z,15.40
2018-06-13T04:07:04.554Z,15.33
2018-06-13T04:09:33.855Z,16.10
2018-06-13T04:12:03.228Z,18.53
2018-06-13T04:14:32.536Z,17.87
2018-06-13T04:17:01.849Z,19.13
2018-06-13T04:19:31.255Z,18.50
2018-06-13T04:22:00.624Z,20.85
2018-06-13T04:24:29.920Z,19.83
2018-06-13T04:26:59.331Z,19.48
2018-06-13T04:29:28.608Z,21.50
2018-06-13T04:31:58.022Z,20.27
2018-06-13T04:34:27.519Z,20.37
2018-06-13T04:36:56.754Z,22.60
2018-06-13T04:39:26.015Z,20.60
2018-06-13T04:41:55.504Z,22.80
2018-06-13T04:44:25.124Z,22.05
2018-06-13T04:46:55.449Z,20.83
2018-06-13T04:49:24.837Z,21.87
2018-06-13T04:51:54.836Z,22.10
2018-06-13T04:54:24.195Z,21.80
2018-06-13T04:56:53.556Z,23.13
2018-06-13T04:59:22.891Z,22.57
2018-06-13T05:01:52.182Z,20.47
2018-06-13T05:04:21.568Z,22.85
2018-06-13T05:06:50.973Z,22.00
2018-06-13T05:09:20.389Z,23.73
2018-06-13T05:11:49.530Z,23.07
2018-06-13T05:14:18.905Z,20.82
2018-06-13T05:16:48.278Z,23.53
2018-06-13T05:19:17.558Z,23.75
2018-06-13T05:21:47.083Z,23.00
2018-06-13T05:24:16.435Z,23.67
2018-06-13T05:26:45.826Z,22.90
2018-06-13T05:29:15.210Z,21.07
2018-06-13T05:31:48.347Z,23.52
2018-06-13T05:34:17.693Z,21.70
2018-06-13T05:36:47.044Z,21.68
2018-06-13T05:39:16.502Z,23.20
2018-06-13T05:41:45.889Z,23.75
2018-06-13T05:44:15.197Z,22.42
2018-06-13T05:46:44.533Z,20.65
2018-06-13T05:49:13.902Z,19.62
2018-06-13T05:51:43.292Z,21.23
2018-06-13T05:54:12.904Z,20.92
2018-06-13T05:56:42.299Z,20.52
2018-06-13T05:59:11.609Z,20.12
2018-06-13T06:01:41.023Z,21.97
2018-06-13T06:04:10.450Z,20.60
2018-06-13T06:06:39.818Z,19.40
2018-06-13T06:09:09.790Z,22.22
2018-06-13T06:11:39.022Z,21.73
2018-06-13T06:14:08.339Z,21.90
2018-06-13T06:16:37.680Z,20.52
2018-06-13T06:19:06.936Z,21.75
2018-06-13T06:21:36.311Z,20.35
2018-06-13T06:24:06.389Z,20.85
2018-06-13T06:26:35.711Z,19.10
2018-06-13T06:29:05.118Z,19.05
2018-06-13T06:31:34.455Z,20.10
2018-06-13T06:34:03.951Z,18.45
2018-06-13T06:36:33.520Z,19.00
2018-06-13T06:39:02.788Z,17.37
2018-06-13T06:41:32.247Z,20.08
2018-06-13T06:44:01.532Z,21.85
2018-06-13T06:46:30.978Z,18.42
2018-06-13T06:49:00.290Z,17.45
2018-06-13T06:51:29.631Z,20.77
2018-06-13T06:53:58.858Z,19.37
2018-06-13T06:56:28.384Z,20.02
2018-06-13T06:58:57.747Z,21.02
2018-06-13T07:01:27.240Z,19.23
2018-06-13T07:03:57.675Z,19.52
2018-06-13T07:06:27.008Z,18.52
2018-06-13T07:08:56.342Z,16.55
2018-06-13T07:11:25.844Z,16.50
2018-06-13T07:13:55.437Z,14.05
2018-06-13T07:16:24.838Z,15.75
2018-06-13T07:18:54.174Z,12.60
2018-06-13T07:21:23.675Z,16.60
2018-06-13T07:23:52.871Z,13.13
2018-06-13T07:26:22.245Z,15.35
2018-06-13T07:28:51.615Z,14.75
2018-06-13T07:31:20.966Z,13.22
2018-06-13T07:33:50.279Z,14.15
2018-06-13T07:36:19.634Z,11.60
2018-06-13T07:38:48.972Z,11.73
2018-06-13T07:41:19.269Z,12.05
2018-06-13T07:43:48.520Z,11.65
2018-06-13T07:46:17.907Z,11.95
2018-06-13T07:48:47.279Z,10.03
2018-06-13T07:51:16.695Z,9.65
2018-06-13T07:53:46.041Z,11.18
2018-06-13T07:56:15.374Z,13.80
2018-06-13T07:58:44.690Z,15.35
2018-06-13T08:01:14.201Z,11.05
2018-06-13T08:03:43.422Z,9.38
2018-06-13T08:06:12.701Z,10.08
2018-06-13T08:08:42.004Z,10.55
2018-06-13T08:11:11.380Z,13.53
2018-06-13T08:13:40.811Z,15.93
2018-06-13T08:16:10.355Z,16.65
2018-06-13T08:18:39.677Z,14.65
2018-06-13T08:21:08.935Z,16.70
2018-06-13T08:23:38.426Z,14.25
2018-06-13T08:26:07.913Z,13.48
2018-06-13T08:28:37.395Z,15.03
2018-06-13T08:31:06.869Z,14.93
2018-06-13T08:33:36.576Z,15.00
2018-06-13T08:36:06.032Z,14.95
2018-06-13T08:38:35.724Z,12.18
2018-06-13T08:41:05.102Z,14.68
2018-06-13T08:43:34.443Z,13.95
2018-06-13T08:46:04.172Z,14.60
2018-06-13T08:48:33.515Z,12.80
2018-06-13T08:51:02.971Z,16.65
2018-06-13T08:53:33.162Z,16.48
2018-06-13T08:56:02.556Z,16.02
2018-06-13T08:58:31.978Z,14.55
2018-06-13T09:01:01.715Z,14.00
2018-06-13T09:03:31.010Z,16.67
2018-06-13T09:06:00.642Z,15.38
2018-06-13T09:08:29.930Z,15.25
2018-06-13T09:10:59.313Z,16.25
2018-06-13T09:13:28.686Z,16.93
2018-06-13T09:15:57.908Z,14.75
2018-06-13T09:18:27.188Z,16.37
2018-06-13T09:20:56.553Z,15.95
2018-06-13T09:23:25.834Z,18.02
2018-06-13T09:25:55.188Z,18.98
2018-06-13T09:28:24.551Z,19.23
2018-06-13T09:30:53.746Z,20.85
2018-06-13T09:33:23.218Z,23.07
2018-06-13T09:35:52.521Z,25.45
2018-06-13T09:38:21.889Z,24.02
2018-06-13T09:40:51.029Z,27.13
2018-06-13T09:43:20.511Z,26.45
2018-06-13T09:45:49.962Z,27.22
2018-06-13T09:48:19.986Z,24.20
2018-06-13T09:50:49.486Z,24.75
2018-06-13T09:53:18.943Z,27.42
2018-06-13T09:55:48.322Z,30.00
2018-06-13T09:58:18.196Z,27.50
2018-06-13T10:00:52.442Z,28.17
2018-06-13T10:03:22.178Z,25.32
2018-06-13T10:05:51.500Z,26.87
2018-06-13T10:08:20.811Z,27.85
2018-06-13T10:10:50.144Z,23.35
2018-06-13T10:13:19.591Z,24.57
2018-06-13T10:15:49.150Z,19.42
2018-06-13T10:18:18.609Z,20.65
2018-06-13T10:20:47.885Z,20.35
2018-06-13T10:23:18.102Z,19.92
2018-06-13T10:25:47.536Z,18.48
2018-06-13T10:28:16.937Z,17.73
2018-06-13T10:30:46.350Z,16.23
2018-06-13T10:33:15.754Z,12.45
2018-06-13T10:35:45.270Z,11.53
2018-06-13T10:38:14.532Z,12.65
2018-06-13T10:40:43.950Z,14.00
2018-06-13T10:43:13.274Z,14.87
2018-06-13T10:45:42.958Z,14.07
2018-06-13T10:48:12.262Z,13.43
2018-06-13T10:50:41.812Z,15.80
2018-06-13T10:53:11.074Z,13.58
2018-06-13T10:55:40.411Z,13.08
2018-06-13T10:58:09.788Z,11.15
2018-06-13T11:00:39.204Z,13.70
2018-06-13T11:03:08.551Z,11.20
2018-06-13T11:05:37.799Z,9.58
2018-06-13T11:08:07.102Z,10.65
2018-06-13T11:10:36.510Z,10.72
2018-06-13T11:13:05.979Z,10.80
2018-06-13T11:15:35.227Z,10.80
2018-06-13T11:18:04.499Z,13.95
2018-06-13T11:20:34.125Z,13.20
2018-06-13T11:23:03.622Z,12.23
2018-06-13T11:25:33.036Z,15.60
2018-06-13T11:28:02.459Z,13.45
2018-06-13T11:30:31.813Z,16.40
2018-06-13T11:33:01.230Z,13.68
2018-06-13T11:35:30.551Z,15.75
2018-06-13T11:37:59.975Z,14.65
2018-06-13T11:40:29.319Z,16.37
2018-06-13T11:42:59.117Z,16.27
2018-06-13T11:45:28.618Z,16.05
2018-06-13T11:47:58.076Z,17.20
2018-06-13T11:50:27.472Z,18.15
2018-06-13T11:52:57.005Z,13.93
2018-06-13T11:55:27.014Z,15.63
2018-06-13T11:57:56.509Z,14.90
2018-06-13T12:00:26.150Z,17.50
2018-06-13T12:02:55.565Z,15.93
2018-06-13T12:05:28.248Z,15.40
2018-06-13T12:07:57.897Z,16.77
2018-06-13T12:10:27.413Z,13.03
2018-06-13T12:12:56.866Z,17.35
2018-06-13T12:15:26.383Z,17.32
2018-06-13T12:17:55.902Z,16.52
2018-06-13T12:20:25.514Z,15.53
2018-06-13T12:22:54.910Z,15.60
2018-06-13T12:25:24.310Z,17.65
2018-06-13T12:27:54.058Z,14.87
2018-06-13T12:30:23.604Z,13.55
2018-06-13T12:32:53.119Z,14.40
2018-06-13T12:35:22.566Z,15.40
2018-06-13T12:37:51.958Z,15.58
2018-06-13T12:40:21.620Z,15.18
2018-06-13T12:42:51.105Z,14.68
2018-06-13T12:45:20.540Z,14.38
2018-06-13T12:47:50.026Z,12.65
2018-06-13T12:50:19.524Z,13.53
2018-06-13T12:52:49.037Z,14.80
2018-06-13T12:55:18.593Z,13.62
2018-06-13T12:57:47.935Z,14.55
2018-06-13T13:00:17.277Z,15.18
2018-06-13T13:02:46.586Z,13.00
2018-06-13T13:05:15.769Z,14.25
2018-06-13T13:07:45.202Z,13.58
2018-06-13T13:10:15.343Z,13.03
2018-06-13T13:12:44.673Z,11.78
2018-06-13T13:15:14.130Z,13.83
2018-06-13T13:17:43.545Z,14.03
2018-06-13T13:20:12.933Z,12.43
2018-06-13T13:22:42.272Z,12.43
2018-06-13T13:25:11.569Z,13.68
2018-06-13T13:27:40.945Z,12.05
2018-06-13T13:30:10.359Z,13.62
2018-06-13T13:32:39.543Z,13.93
2018-06-13T13:35:08.991Z,13.70
2018-06-13T13:37:38.486Z,12.75
2018-06-13T13:40:08.098Z,13.32
2018-06-13T13:42:37.668Z,14.45
2018-06-13T13:45:07.264Z,12.05
2018-06-13T13:47:36.559Z,12.80
2018-06-13T13:50:05.974Z,12.10
2018-06-13T13:52:35.306Z,11.83
2018-06-13T13:55:04.716Z,12.03
2018-06-13T13:57:34.055Z,13.22
2018-06-13T14:00:03.424Z,11.33
2018-06-13T14:02:32.899Z,12.25
2018-06-13T14:05:02.155Z,11.55
2018-06-13T14:07:31.666Z,11.15
2018-06-13T14:10:01.134Z,11.97
2018-06-13T14:12:30.651Z,11.80
2018-06-13T14:15:00.095Z,12.47
2018-06-13T14:17:29.553Z,10.55
2018-06-13T14:19:58.990Z,10.75
2018-06-13T14:22:28.412Z,11.10
2018-06-13T14:24:57.903Z,10.88
2018-06-13T14:27:27.304Z,10.40
2018-06-13T14:29:56.775Z,10.40
2018-06-13T14:32:26.286Z,10.28
2018-06-13T14:34:55.599Z,10.25
2018-06-13T14:37:24.877Z,10.00
2018-06-13T14:39:54.232Z,10.58
2018-06-13T14:42:23.642Z,9.88
2018-06-13T14:44:53.044Z,9.38
2018-06-13T14:47:23.131Z,9.60
2018-06-13T14:49:52.609Z,9.50
2018-06-13T14:52:22.043Z,9.78
2018-06-13T14:54:51.548Z,10.48
2018-06-13T14:57:20.924Z,9.35
2018-06-13T14:59:50.330Z,10.00
2018-06-13T15:02:19.606Z,9.10
2018-06-13T15:04:48.963Z,10.65
2018-06-13T15:07:18.135Z,11.20
2018-06-13T15:09:47.443Z,9.88
2018-06-13T15:12:16.692Z,9.58
2018-06-13T15:14:46.193Z,10.55
2018-06-13T15:17:15.543Z,9.90
2018-06-13T15:19:45.862Z,10.08
2018-06-13T15:22:15.231Z,9.03
2018-06-13T15:24:44.660Z,9.28
2018-06-13T15:27:14.098Z,9.90
2018-06-13T15:29:43.494Z,10.23
2018-06-13T15:32:13.046Z,9.45
2018-06-13T15:34:43.060Z,8.38
2018-06-13T15:37:12.393Z,9.78
2018-06-13T15:39:41.734Z,9.68
2018-06-13T15:42:11.046Z,11.12
2018-06-13T15:44:40.502Z,9.80
2018-06-13T15:47:09.801Z,11.08
2018-06-13T15:49:39.162Z,9.25
2018-06-13T15:52:09.092Z,9.83
2018-06-13T15:54:38.521Z,9.33
2018-06-13T15:57:07.925Z,9.83
2018-06-13T15:59:37.254Z,9.95
2018-06-13T16:02:06.542Z,8.73
2018-06-13T16:04:36.060Z,10.50
2018-06-13T16:07:06.252Z,9.70
2018-06-13T16:09:35.754Z,10.88
2018-06-13T16:12:05.293Z,9.45
2018-06-13T16:14:34.810Z,9.10
2018-06-13T16:17:04.156Z,9.23
2018-06-13T16:19:34.008Z,8.70
2018-06-13T16:22:03.353Z,8.80
2018-06-13T16:24:32.834Z,8.50
2018-06-13T16:27:02.397Z,8.98
2018-06-13T16:29:32.085Z,8.40
2018-06-13T16:32:01.426Z,8.95
2018-06-13T16:34:30.716Z,8.85
2018-06-13T16:37:00.235Z,8.40
2018-06-13T16:39:29.624Z,9.33
2018-06-13T16:41:58.962Z,8.83
2018-06-13T16:44:28.331Z,8.68
2018-06-13T16:46:57.735Z,8.93
2018-06-13T16:49:27.051Z,7.92
2018-06-13T16:51:58.367Z,8.23
2018-06-13T16:54:38.377Z,8.55
2018-06-13T16:57:07.704Z,9.18
2018-06-13T16:59:37.067Z,8.83
2018-06-13T17:02:06.512Z,7.50
2018-06-13T17:04:36.018Z,7.15
2018-06-13T17:07:05.471Z,7.53
2018-06-13T17:09:34.652Z,7.42
2018-06-13T17:12:03.971Z,7.92
2018-06-13T17:14:33.295Z,8.05
2018-06-13T17:17:02.621Z,7.17
2018-06-13T17:19:31.946Z,6.72
2018-06-13T17:22:01.279Z,6.92
2018-06-13T17:24:31.681Z,6.72
2018-06-13T17:27:01.165Z,7.45
2018-06-13T17:29:30.421Z,7.67
2018-06-13T17:32:00.113Z,7.92
2018-06-13T17:34:29.283Z,7.72
2018-06-13T17:36:58.567Z,8.03
2018-06-13T17:39:27.876Z,7.43
2018-06-13T17:41:57.081Z,7.12
2018-06-13T17:44:26.487Z,7.50
2018-06-13T17:46:55.831Z,7.27
2018-06-13T17:49:25.413Z,7.15
2018-06-13T17:51:54.626Z,8.30
2018-06-13T17:54:24.150Z,7.50
2018-06-13T17:56:53.525Z,6.25
2018-06-13T17:59:22.805Z,6.83
2018-06-13T18:01:52.204Z,6.85
2018-06-13T18:04:21.597Z,6.70
2018-06-13T18:06:51.536Z,6.90
2018-06-13T18:09:20.938Z,6.37
2018-06-13T18:11:50.400Z,5.75
2018-06-13T18:14:19.925Z,5.67
2018-06-13T18:16:49.233Z,5.80
2018-06-13T18:19:18.813Z,5.70
2018-06-13T18:21:48.146Z,5.42
2018-06-13T18:24:17.447Z,6.40
2018-06-13T18:26:46.726Z,5.67
2018-06-13T18:29:15.979Z,5.85
2018-06-13T18:31:48.706Z,5.67
2018-06-13T18:34:18.197Z,6.22
2018-06-13T18:36:47.543Z,6.17
2018-06-13T18:39:16.889Z,6.90
2018-06-13T18:41:46.011Z,7.90
2018-06-13T18:44:15.330Z,8.55
2018-06-13T18:46:45.056Z,9.70
2018-06-13T18:49:15.387Z,11.13
2018-06-13T18:51:44.867Z,10.30
2018-06-13T18:54:14.627Z,11.70
2018-06-13T18:56:44.378Z,12.10
2018-06-13T18:59:13.987Z,12.10
2018-06-13T19:01:44.111Z,12.40
2018-06-13T19:04:13.534Z,12.47
2018-06-13T19:06:43.192Z,12.50
2018-06-13T19:09:12.883Z,11.57
2018-06-13T19:11:46.221Z,13.37
2018-06-13T19:14:21.300Z,12.80
2018-06-13T19:16:50.675Z,13.07
2018-06-13T19:19:24.295Z,13.53
2018-06-13T19:21:53.990Z,11.97
2018-06-13T19:24:23.719Z,13.37
2018-06-13T19:26:53.228Z,13.37
2018-06-13T19:29:23.111Z,13.13
2018-06-13T19:31:52.849Z,13.27
2018-06-13T19:34:23.768Z,13.23
2018-06-13T19:36:53.483Z,14.00
2018-06-13T19:39:43.475Z,14.13
2018-06-13T19:42:12.971Z,13.67
2018-06-13T19:44:54.176Z,14.07
2018-06-13T19:47:28.820Z,13.97
2018-06-13T19:50:04.795Z,14.30
2018-06-13T19:52:39.098Z,13.83
2018-06-13T19:55:13.503Z,15.00
2018-06-13T19:57:43.234Z,15.10
2018-06-13T20:00:12.579Z,15.10
2018-06-13T20:02:47.100Z,14.37
2018-06-13T20:05:21.782Z,14.83
2018-06-13T20:07:51.132Z,15.50
2018-06-13T20:10:20.868Z,13.73
2018-06-13T20:12:55.358Z,14.33
2018-06-13T20:15:29.819Z,14.77
2018-06-13T20:18:04.680Z,13.80
2018-06-13T20:20:34.269Z,15.47
2018-06-13T20:23:03.842Z,13.57
2018-06-13T20:25:39.323Z,15.03
2018-06-13T20:28:17.680Z,14.57
2018-06-13T20:30:52.246Z,14.57
2018-06-13T20:33:22.513Z,15.50
2018-06-13T20:35:51.963Z,15.30
2018-06-13T20:38:21.407Z,14.60
2018-06-13T20:40:51.214Z,14.83
2018-06-13T20:43:20.809Z,14.40
2018-06-13T20:45:50.393Z,14.73
2018-06-13T20:48:20.083Z,15.10
2018-06-13T20:50:51.356Z,15.03
2018-06-13T20:53:21.102Z,15.83
2018-06-13T20:55:50.610Z,15.47
2018-06-13T20:58:20.885Z,14.53
2018-06-13T21:00:50.576Z,13.83
2018-06-13T21:03:20.980Z,13.87
2018-06-13T21:05:50.645Z,13.87
2018-06-13T21:08:20.575Z,13.60
2018-06-13T21:10:50.093Z,13.80
2018-06-13T21:13:20.240Z,12.30
2018-06-13T21:15:55.840Z,13.43
2018-06-13T21:18:25.464Z,12.80
2018-06-13T21:20:55.079Z,13.17
2018-06-13T21:23:24.625Z,12.37
2018-06-13T21:25:54.492Z,12.60
2018-06-13T21:28:23.822Z,12.23
2018-06-13T21:30:53.174Z,12.13
2018-06-13T21:33:22.617Z,11.23
2018-06-13T21:35:52.088Z,10.93
2018-06-13T21:38:21.515Z,11.97
2018-06-13T21:40:51.200Z,11.13
2018-06-13T21:43:20.580Z,11.17
2018-06-13T21:45:51.158Z,10.60
2018-06-13T21:48:20.430Z,10.10
2018-06-13T21:50:49.635Z,10.80
2018-06-13T21:53:19.246Z,9.47
2018-06-13T21:55:48.877Z,10.03
2018-06-13T21:58:18.276Z,8.83
2018-06-13T22:00:47.831Z,9.93
2018-06-13T22:03:17.260Z,9.83
2018-06-13T22:05:46.562Z,9.27
2018-06-13T22:08:19.630Z,9.10
2018-06-13T22:10:49.071Z,8.57
2018-06-13T22:13:18.463Z,9.50
2018-06-13T22:15:47.811Z,9.43
2018-06-13T22:18:17.187Z,9.43
2018-06-13T22:20:46.537Z,8.33
2018-06-13T22:23:15.964Z,8.93
2018-06-13T22:25:45.262Z,8.33
2018-06-13T22:28:14.662Z,9.10
2018-06-13T22:30:44.058Z,8.37
2018-06-13T22:33:14.382Z,9.50
2018-06-13T22:35:43.796Z,8.83
2018-06-13T22:38:13.305Z,8.33
2018-06-13T22:40:42.807Z,9.03
2018-06-13T22:43:12.172Z,9.00
2018-06-13T22:45:41.890Z,9.17
2018-06-13T22:48:11.255Z,9.10
2018-06-13T22:50:40.986Z,8.93
2018-06-13T22:53:10.374Z,9.53
2018-06-13T22:55:39.828Z,8.87
2018-06-13T22:58:09.251Z,10.27
2018-06-13T23:01:10.292Z,10.43
2018-06-13T23:03:39.996Z,9.83
2018-06-13T23:06:10.535Z,9.50
2018-06-13T23:08:40.203Z,8.77
2018-06-13T23:11:09.454Z,9.53
2018-06-13T23:13:38.766Z,9.17
2018-06-13T23:16:08.487Z,9.90
2018-06-13T23:18:37.850Z,9.47
2018-06-13T23:21:07.381Z,10.23
2018-06-13T23:23:36.824Z,10.10
2018-06-13T23:26:06.354Z,10.27
2018-06-13T23:28:35.804Z,9.67
2018-06-13T23:31:05.334Z,10.80
2018-06-13T23:33:34.795Z,9.37
2018-06-13T23:36:04.227Z,9.83
2018-06-13T23:38:33.616Z,9.73
2018-06-13T23:41:03.057Z,9.67
2018-06-13T23:43:33.003Z,9.70
2018-06-13T23:46:02.534Z,9.70
2018-06-13T23:48:31.946Z,9.17
2018-06-13T23:51:01.266Z,10.00
2018-06-13T23:53:30.835Z,9.17
2018-06-13T23:56:00.378Z,9.57
2018-06-13T23:58:29.792Z,9.47
